ΕΜΥ, Εθνική Μετεωρολογική Υπηρεσία - Δελτία Καιρού, Προγνώσεις

ΑΕΡΟΝΑΥΤΙΛΙΑ

GREEK AIRPORTS CODES

LGEL 200650Z 33008KT 9999 SCT025 28/16 Q1014=

EUROPEAN AIRPORTS CODES

TAF LGEL 200500Z 2006/2106 36012KT 9999 FEW025 BECMG 2012/2014 36014G24KT=